Salonica, Greece
Current Conditions -  °F | °C
As of 12:50 AM on Sunday 26 Oct 2014 (Local Time) from LGTS Reporting Station
Overcast Overcast  
Wind Chill: 11°   Ceiling: 4000
Heat Index: 11°   Visibility: 6mi
Dew Point:   Wind: 16mph
Humidity: 62%   Direction: 340°NNW
Pressure: 30.06"   Gusts: NA
Location:  40.52°N, 22.97°E
Report Text: LGTS 252150Z 34014KT 9999 FEW018 BKN040 OVC060 11/04 Q1018 NOSIG
Loading
Personal Weather Stations






























Interactive Weather Map New forecast layout! Learn more

10-Day Weather Forecast

Advertisements
Track Severe Weather on mobile